Time;durP1;ratioP1;P1;durP2;ratioP2;P2;SDS_P1;SDS_P2;PMS_P1;PMS_P2;Temp;Humidity;BMP_temperature;BMP_pressure;BME280_temperature;BME280_humidity;BME280_pressure;Samples;Min_cycle;Max_cycle;Signal;HPM_P1;HPM_P2
2021/11/06 00:00:25;;;;;;;1.67;0.40;;;5.90;99.90;;;;;;5028284;28;20049;-84
2021/11/06 00:02:51;;;;;;;1.85;0.50;;;6.00;99.90;;;;;;5028330;28;20037;-83
2021/11/06 00:05:17;;;;;;;3.03;0.75;;;6.00;99.90;;;;;;5011703;28;20041;-84
2021/11/06 00:07:43;;;;;;;4.15;1.08;;;6.10;99.90;;;;;;5012885;28;20045;-83
2021/11/06 00:10:11;;;;;;;2.10;0.75;;;6.00;99.90;;;;;;5028199;28;20465;-84
2021/11/06 00:12:38;;;;;;;5.93;1.15;;;6.00;99.90;;;;;;5024524;28;20046;-84
2021/11/06 00:15:06;;;;;;;2.78;1.20;;;6.10;99.90;;;;;;5006218;28;20033;-83
2021/11/06 00:17:32;;;;;;;4.35;0.82;;;6.10;99.90;;;;;;5027961;28;20041;-84
2021/11/06 00:19:58;;;;;;;4.15;0.80;;;6.00;99.90;;;;;;5011596;28;20064;-84
2021/11/06 00:22:24;;;;;;;3.72;0.90;;;6.00;99.90;;;;;;5011633;28;20045;-84
2021/11/06 00:24:49;;;;;;;3.53;1.23;;;6.10;99.90;;;;;;5024307;28;20044;-84
2021/11/06 00:27:15;;;;;;;2.88;1.40;;;6.10;99.90;;;;;;5068666;28;20037;-84
2021/11/06 00:29:41;;;;;;;6.03;1.30;;;6.00;99.90;;;;;;5052255;28;20131;-84
2021/11/06 00:32:07;;;;;;;4.15;1.23;;;6.10;99.90;;;;;;5052010;28;20116;-84
2021/11/06 00:34:33;;;;;;;3.70;1.67;;;6.10;99.90;;;;;;5051794;28;20066;-84
2021/11/06 00:36:58;;;;;;;6.28;1.58;;;6.00;99.90;;;;;;5068541;28;20036;-84
2021/11/06 00:39:24;;;;;;;4.13;1.95;;;6.00;99.90;;;;;;5068735;28;20041;-84
2021/11/06 00:41:50;;;;;;;2.95;1.30;;;6.10;99.90;;;;;;5051598;28;20037;-84
2021/11/06 00:44:16;;;;;;;6.47;1.58;;;6.00;99.90;;;;;;5051862;28;20096;-84
2021/11/06 00:46:42;;;;;;;5.43;2.05;;;5.90;99.90;;;;;;5051375;28;20056;-84
2021/11/06 00:49:07;;;;;;;3.63;1.35;;;6.00;99.90;;;;;;5068511;28;20093;-84
2021/11/06 00:51:33;;;;;;;3.92;1.90;;;5.90;99.90;;;;;;5052019;28;20033;-84
2021/11/06 00:53:59;;;;;;;2.70;1.52;;;5.80;99.90;;;;;;5051733;28;20053;-84
2021/11/06 00:56:24;;;;;;;2.67;1.13;;;5.90;99.90;;;;;;5051534;28;20063;-84
2021/11/06 00:58:50;;;;;;;4.78;1.92;;;5.80;99.90;;;;;;5051776;28;20061;-84
2021/11/06 01:01:16;;;;;;;2.28;1.27;;;5.90;99.90;;;;;;5051552;28;20032;-83
2021/11/06 01:03:42;;;;;;;4.13;2.00;;;5.80;99.90;;;;;;5051167;28;20484;-84
2021/11/06 01:06:08;;;;;;;3.58;1.92;;;5.80;99.90;;;;;;5086049;28;20044;-84
2021/11/06 01:08:33;;;;;;;4.43;2.42;;;5.80;99.90;;;;;;5068026;28;20041;-84
2021/11/06 01:10:59;;;;;;;7.28;3.10;;;5.90;99.90;;;;;;5051596;28;20044;-84
2021/11/06 01:13:25;;;;;;;8.75;3.83;;;5.90;99.90;;;;;;5067930;28;20056;-84
2021/11/06 01:15:50;;;;;;;5.35;2.78;;;6.00;99.90;;;;;;5084814;28;20036;-84
2021/11/06 01:18:16;;;;;;;8.63;4.97;;;6.00;99.90;;;;;;5068045;28;20060;-84
2021/11/06 01:20:41;;;;;;;12.27;5.28;;;6.00;99.90;;;;;;5067898;28;20123;-83
2021/11/06 01:23:08;;;;;;;6.85;4.68;;;6.00;99.90;;;;;;5084961;28;20042;-83
2021/11/06 01:25:34;;;;;;;8.02;5.03;;;5.90;99.90;;;;;;5067877;28;20036;-84
2021/11/06 01:27:59;;;;;;;10.40;5.63;;;6.00;99.90;;;;;;5067523;28;20064;-84
2021/11/06 01:30:25;;;;;;;11.80;5.35;;;6.00;99.90;;;;;;5067996;28;20107;-84
2021/11/06 01:32:51;;;;;;;8.52;5.00;;;6.00;99.90;;;;;;5067543;28;20416;-84
2021/11/06 01:35:18;;;;;;;7.95;5.18;;;6.00;99.90;;;;;;5067784;28;20082;-84
2021/11/06 01:37:45;;;;;;;7.22;5.50;;;6.00;99.90;;;;;;5067709;28;20037;-84
2021/11/06 01:40:16;;;;;;;7.85;5.18;;;6.10;99.90;;;;;;5067839;28;20039;-84
2021/11/06 01:42:42;;;;;;;9.30;4.95;;;6.10;99.90;;;;;;5067528;28;20124;-84
2021/11/06 01:45:11;;;;;;;9.23;3.97;;;6.10;99.90;;;;;;5067458;28;20107;-84
2021/11/06 01:47:37;;;;;;;7.25;4.72;;;6.20;99.90;;;;;;5064048;28;20111;-84
2021/11/06 01:50:04;;;;;;;7.82;5.07;;;6.10;99.90;;;;;;5064314;28;20056;-84
2021/11/06 01:52:30;;;;;;;11.05;4.15;;;6.10;99.90;;;;;;5063954;28;20072;-84
2021/11/06 01:54:55;;;;;;;7.43;4.32;;;6.20;99.90;;;;;;5064197;28;20029;-84
2021/11/06 01:57:21;;;;;;;10.15;5.47;;;6.20;99.90;;;;;;5065234;28;20115;-85
2021/11/06 01:59:47;;;;;;;6.35;4.47;;;6.20;99.90;;;;;;5064228;28;20071;-84
2021/11/06 02:02:14;;;;;;;9.35;5.07;;;6.20;99.90;;;;;;5064033;28;20041;-84
2021/11/06 02:04:40;;;;;;;7.82;5.18;;;6.20;99.90;;;;;;5063943;28;20033;-84
2021/11/06 02:07:06;;;;;;;11.10;5.70;;;6.30;99.90;;;;;;5047391;28;20453;-84
2021/11/06 02:09:31;;;;;;;8.00;4.45;;;6.30;99.90;;;;;;5047339;28;20057;-84
2021/11/06 02:11:57;;;;;;;9.82;6.30;;;6.30;99.90;;;;;;5047323;28;20044;-84
2021/11/06 02:14:24;;;;;;;9.43;5.45;;;6.30;99.90;;;;;;5040937;28;20052;-83
2021/11/06 02:16:52;;;;;;;9.50;5.65;;;6.30;99.90;;;;;;5047797;28;20037;-85
2021/11/06 02:19:18;;;;;;;10.77;6.47;;;6.30;99.90;;;;;;5047751;28;20048;-85
2021/11/06 02:21:46;;;;;;;8.65;5.47;;;6.30;99.90;;;;;;5031223;28;20044;-84
2021/11/06 02:24:12;;;;;;;10.05;5.45;;;6.30;99.90;;;;;;5047669;28;20037;-83
2021/11/06 02:26:37;;;;;;;11.93;6.10;;;6.30;99.90;;;;;;5031132;28;20048;-84
2021/11/06 02:29:03;;;;;;;13.30;6.32;;;6.40;99.90;;;;;;5064228;28;20049;-84
2021/11/06 02:31:29;;;;;;;15.65;7.82;;;6.40;99.90;;;;;;5047590;28;20069;-84
2021/11/06 02:33:56;;;;;;;13.52;7.47;;;6.40;99.90;;;;;;5047491;28;20049;-84
2021/11/06 02:36:22;;;;;;;14.05;7.93;;;6.40;99.90;;;;;;5047460;28;20037;-84
2021/11/06 02:38:49;;;;;;;16.60;6.10;;;6.40;99.90;;;;;;5047694;28;20038;-84
2021/11/06 02:41:15;;;;;;;10.82;5.43;;;6.40;99.90;;;;;;5047316;28;20475;-84
2021/11/06 02:43:41;;;;;;;16.58;7.13;;;6.40;99.90;;;;;;5047145;28;20068;-84
2021/11/06 02:46:07;;;;;;;10.30;4.30;;;6.40;99.90;;;;;;5047137;28;20041;-84
2021/11/06 02:48:32;;;;;;;12.02;6.30;;;6.40;99.90;;;;;;5047210;28;20095;-83
2021/11/06 02:50:58;;;;;;;10.05;5.38;;;6.40;99.90;;;;;;5047321;28;20041;-84
2021/11/06 02:53:24;;;;;;;12.13;5.88;;;6.40;99.90;;;;;;5047270;28;20045;-83
2021/11/06 02:55:49;;;;;;;12.82;5.07;;;6.40;99.90;;;;;;5047088;28;20072;-85
2021/11/06 02:58:15;;;;;;;11.25;7.43;;;6.40;99.90;;;;;;5046955;28;20041;-84
2021/11/06 03:00:42;;;;;;;11.88;5.18;;;6.30;99.90;;;;;;5046965;28;20041;-84
2021/11/06 03:03:07;;;;;;;18.10;7.22;;;6.40;99.90;;;;;;5030565;28;20052;-84
2021/11/06 03:05:33;;;;;;;14.15;6.38;;;6.40;99.90;;;;;;5037871;28;20042;-83
2021/11/06 03:07:59;;;;;;;17.48;6.72;;;6.40;99.90;;;;;;5048238;28;20136;-84
2021/11/06 03:10:26;;;;;;;16.95;7.22;;;6.40;99.90;;;;;;5047005;28;20467;-83
2021/11/06 03:12:52;;;;;;;19.38;7.70;;;6.40;99.90;;;;;;5030273;28;20049;-85
2021/11/06 03:15:18;;;;;;;21.90;9.93;;;6.40;99.90;;;;;;5062726;28;20037;-83
2021/11/06 03:17:43;;;;;;;21.27;9.32;;;6.40;99.90;;;;;;5066734;28;20041;-84
2021/11/06 03:20:11;;;;;;;21.00;9.65;;;6.40;99.90;;;;;;5050003;28;20037;-83
2021/11/06 03:22:36;;;;;;;20.73;9.20;;;6.50;99.90;;;;;;5066747;28;20086;-84
2021/11/06 03:25:04;;;;;;;22.63;8.35;;;6.50;99.90;;;;;;5048872;28;20444;-83
2021/11/06 03:27:29;;;;;;;20.77;8.20;;;6.50;99.90;;;;;;5066522;28;20045;-83
2021/11/06 03:29:55;;;;;;;22.65;8.88;;;6.40;99.90;;;;;;5066369;28;20048;-84
2021/11/06 03:32:21;;;;;;;23.63;9.48;;;6.50;99.90;;;;;;5066432;28;20060;-84
2021/11/06 03:34:47;;;;;;;22.20;7.50;;;6.50;99.90;;;;;;5083024;28;20043;-84
2021/11/06 03:37:12;;;;;;;16.77;7.22;;;6.60;99.90;;;;;;5066411;28;20036;-84
2021/11/06 03:39:38;;;;;;;18.42;7.38;;;6.50;99.90;;;;;;5066352;28;20544;-84
2021/11/06 03:42:05;;;;;;;18.05;7.18;;;6.50;99.90;;;;;;5049638;28;20385;-84
2021/11/06 03:44:31;;;;;;;20.73;7.82;;;6.50;99.90;;;;;;5049461;28;20611;-83
2021/11/06 03:46:56;;;;;;;15.13;7.53;;;6.50;99.90;;;;;;5064729;23;20053;-84
2021/11/06 03:49:22;;;;;;;18.33;7.90;;;6.50;99.90;;;;;;5047552;28;20101;-84
2021/11/06 03:51:48;;;;;;;15.38;6.70;;;6.50;99.90;;;;;;5029914;28;20061;-83
2021/11/06 03:54:13;;;;;;;16.75;7.13;;;6.50;99.90;;;;;;5029769;28;20094;-83
2021/11/06 03:56:39;;;;;;;14.02;5.72;;;6.50;99.90;;;;;;5046412;28;20033;-84
2021/11/06 03:59:05;;;;;;;15.13;6.95;;;6.50;99.90;;;;;;5029647;28;20038;-84
2021/11/06 04:01:32;;;;;;;20.60;7.25;;;6.50;99.90;;;;;;5046060;28;20045;-84
2021/11/06 04:03:58;;;;;;;15.60;7.22;;;6.50;99.90;;;;;;5046349;28;20045;-83
2021/11/06 04:06:23;;;;;;;16.70;7.15;;;6.50;99.90;;;;;;5029689;28;20056;-83
2021/11/06 04:08:51;;;;;;;14.88;7.18;;;6.50;99.90;;;;;;5029705;28;20046;-84
2021/11/06 04:11:18;;;;;;;17.60;7.43;;;6.50;99.90;;;;;;5029650;28;20044;-84
2021/11/06 04:13:43;;;;;;;16.15;7.25;;;6.50;99.90;;;;;;5042664;28;20072;-84
2021/11/06 04:16:09;;;;;;;14.50;7.85;;;6.50;99.90;;;;;;5009845;28;20038;-85
2021/11/06 04:18:35;;;;;;;18.08;8.77;;;6.50;99.90;;;;;;5009867;28;20102;-83
2021/11/06 04:21:00;;;;;;;14.90;8.30;;;6.50;99.90;;;;;;5025866;28;20042;-84
2021/11/06 04:23:26;;;;;;;17.83;8.68;;;6.50;99.90;;;;;;5009583;28;20125;-84
2021/11/06 04:25:51;;;;;;;18.73;8.88;;;6.40;99.90;;;;;;5025719;28;20102;-84
2021/11/06 04:28:17;;;;;;;16.83;8.73;;;6.40;99.90;;;;;;5026915;28;20038;-84
2021/11/06 04:30:42;;;;;;;16.02;8.65;;;6.40;99.90;;;;;;5009429;28;20129;-84
2021/11/06 04:33:08;;;;;;;19.13;8.63;;;6.40;99.90;;;;;;5009061;28;20132;-84
2021/11/06 04:35:34;;;;;;;16.33;8.27;;;6.40;99.90;;;;;;5025348;28;20189;-84
2021/11/06 04:37:59;;;;;;;14.48;6.85;;;6.40;99.90;;;;;;5026630;28;20060;-84
2021/11/06 04:40:25;;;;;;;15.68;7.68;;;6.50;99.90;;;;;;5009180;28;20053;-84
2021/11/06 04:42:51;;;;;;;14.93;8.45;;;6.40;99.90;;;;;;5025597;28;20082;-84
2021/11/06 04:45:36;;;;;;;21.42;10.30;;;6.40;99.90;;;;;;5008646;28;20038;-84
2021/11/06 04:48:03;;;;;;;17.60;8.65;;;6.40;99.90;;;;;;5023568;28;20065;-85
2021/11/06 04:50:29;;;;;;;17.50;8.77;;;6.30;99.90;;;;;;5027522;28;20033;-83
2021/11/06 04:52:54;;;;;;;16.05;8.50;;;6.40;99.90;;;;;;5010854;28;20060;-84
2021/11/06 04:55:20;;;;;;;17.85;8.73;;;6.40;99.90;;;;;;5010800;28;20118;-83
2021/11/06 04:57:46;;;;;;;17.38;9.57;;;6.40;99.90;;;;;;5011056;28;20104;-85
2021/11/06 05:00:14;;;;;;;20.05;8.38;;;6.30;99.90;;;;;;5010806;28;20056;-85
2021/11/06 05:02:40;;;;;;;16.17;7.40;;;6.30;99.90;;;;;;5010768;28;20041;-84
2021/11/06 05:05:07;;;;;;;18.65;9.30;;;6.30;99.90;;;;;;5010424;28;20068;-85
2021/11/06 05:07:33;;;;;;;17.88;8.15;;;6.30;99.90;;;;;;5027025;28;20041;-84
2021/11/06 05:09:58;;;;;;;15.30;8.20;;;6.30;99.90;;;;;;5027112;28;20038;-84
2021/11/06 05:12:24;;;;;;;14.48;7.15;;;6.30;99.90;;;;;;5027114;28;20513;-85
2021/11/06 05:14:50;;;;;;;17.23;9.10;;;6.30;99.90;;;;;;5027033;28;20042;-84
2021/11/06 05:17:18;;;;;;;18.05;9.48;;;6.30;99.90;;;;;;5010338;28;20041;-83
2021/11/06 05:19:44;;;;;;;17.13;9.25;;;6.30;99.90;;;;;;5027018;28;20044;-84
2021/11/06 05:22:10;;;;;;;14.23;8.13;;;6.30;99.90;;;;;;5026891;28;20037;-84
2021/11/06 05:24:37;;;;;;;13.15;7.82;;;6.30;99.90;;;;;;5013492;28;20033;-83
2021/11/06 05:27:04;;;;;;;17.15;8.68;;;6.30;99.90;;;;;;5028000;28;20041;-83
2021/11/06 05:29:29;;;;;;;12.77;7.78;;;6.30;99.90;;;;;;5028721;28;20046;-84
2021/11/06 05:31:55;;;;;;;14.38;8.70;;;6.30;99.90;;;;;;5044652;28;20041;-84
2021/11/06 05:34:21;;;;;;;13.63;8.23;;;6.30;99.90;;;;;;5046962;28;20057;-84
2021/11/06 05:36:47;;;;;;;16.27;8.95;;;6.40;99.90;;;;;;5028066;28;20056;-84
2021/11/06 05:39:12;;;;;;;17.33;9.32;;;6.40;99.90;;;;;;5028134;28;20042;-84
2021/11/06 05:41:38;;;;;;;16.05;10.10;;;6.40;99.90;;;;;;5044607;28;20033;-84
2021/11/06 05:44:04;;;;;;;16.73;9.55;;;6.40;99.90;;;;;;5027936;28;20048;-83
2021/11/06 05:46:30;;;;;;;16.02;10.25;;;6.40;99.90;;;;;;5036836;23;20829;-84
2021/11/06 05:48:57;;;;;;;18.65;10.77;;;6.40;99.90;;;;;;5049881;28;20090;-84
2021/11/06 05:51:24;;;;;;;20.42;11.68;;;6.40;99.90;;;;;;5052182;28;20052;-84
2021/11/06 05:53:50;;;;;;;19.15;10.07;;;6.40;99.90;;;;;;5052096;28;20544;-82
2021/11/06 05:56:16;;;;;;;16.05;9.15;;;6.50;99.90;;;;;;5051912;28;20037;-84
2021/11/06 05:58:42;;;;;;;13.85;10.65;;;6.50;99.90;;;;;;5068861;28;20037;-84
2021/11/06 06:01:08;;;;;;;17.67;10.05;;;6.50;99.90;;;;;;5068795;28;20114;-82
2021/11/06 06:03:33;;;;;;;20.45;11.68;;;6.50;99.90;;;;;;5051700;28;20045;-84
2021/11/06 06:05:59;;;;;;;17.83;11.05;;;6.40;99.90;;;;;;5068422;28;20052;-83
2021/11/06 06:08:25;;;;;;;19.40;11.30;;;6.40;99.90;;;;;;5068433;28;20067;-83
2021/11/06 06:10:50;;;;;;;20.80;11.57;;;6.40;99.90;;;;;;5051943;28;20037;-83
2021/11/06 06:13:16;;;;;;;15.20;10.45;;;6.40;99.90;;;;;;5068465;28;20154;-83
2021/11/06 06:15:42;;;;;;;16.08;9.73;;;6.40;99.90;;;;;;5051293;28;20497;-83
2021/11/06 06:18:08;;;;;;;18.90;10.57;;;6.40;99.90;;;;;;5051666;28;20044;-84
2021/11/06 06:20:33;;;;;;;19.98;10.88;;;6.40;99.90;;;;;;5068126;28;20044;-84
2021/11/06 06:22:59;;;;;;;14.98;9.23;;;6.40;99.90;;;;;;5051224;28;20045;-84
2021/11/06 06:25:25;;;;;;;16.45;10.43;;;6.40;99.90;;;;;;5047041;28;20041;-83
2021/11/06 06:27:51;;;;;;;14.98;9.32;;;6.40;99.90;;;;;;5051108;28;20037;-83
2021/11/06 06:30:17;;;;;;;15.48;9.10;;;6.40;99.90;;;;;;5050932;28;20044;-83
2021/11/06 06:32:43;;;;;;;16.17;9.43;;;6.40;99.90;;;;;;5065832;28;20090;-83
2021/11/06 06:35:10;;;;;;;12.65;8.27;;;6.40;99.90;;;;;;5053955;28;20041;-84
2021/11/06 06:37:37;;;;;;;13.32;8.45;;;6.40;99.90;;;;;;5050783;28;20401;-83
2021/11/06 06:40:04;;;;;;;15.18;8.98;;;6.30;99.90;;;;;;5050845;28;20041;-85
2021/11/06 06:42:32;;;;;;;15.52;8.93;;;6.30;99.90;;;;;;5050656;28;20527;-83
2021/11/06 06:44:59;;;;;;;17.55;8.90;;;6.30;99.90;;;;;;5067464;28;20037;-84
2021/11/06 06:47:24;;;;;;;15.30;9.63;;;6.30;99.90;;;;;;5050357;28;20049;-84
2021/11/06 06:49:50;;;;;;;13.90;9.15;;;6.30;99.90;;;;;;5050279;28;20435;-85
2021/11/06 06:52:17;;;;;;;16.63;10.60;;;6.30;99.90;;;;;;5050308;28;20052;-84
2021/11/06 06:54:43;;;;;;;16.30;10.43;;;6.30;99.90;;;;;;5050492;28;20064;-84
2021/11/06 06:57:10;;;;;;;16.40;9.80;;;6.30;99.90;;;;;;5067117;28;20041;-84
2021/11/06 06:59:36;;;;;;;14.32;9.80;;;6.30;99.90;;;;;;5049661;28;20126;-84
2021/11/06 07:02:04;;;;;;;16.58;9.60;;;6.30;99.90;;;;;;5066531;28;20041;-84
2021/11/06 07:04:30;;;;;;;15.82;9.43;;;6.30;99.90;;;;;;5053192;28;20302;-85
2021/11/06 07:06:56;;;;;;;14.98;9.57;;;6.30;99.90;;;;;;5049526;28;22022;-85
2021/11/06 07:09:22;;;;;;;15.15;9.52;;;6.30;99.90;;;;;;5065332;28;20417;-84
2021/11/06 07:11:49;;;;;;;19.08;10.30;;;6.40;99.90;;;;;;5030111;28;20038;-84
2021/11/06 07:14:16;;;;;;;16.23;9.10;;;6.30;99.90;;;;;;5037899;28;20107;-84
2021/11/06 07:16:43;;;;;;;17.15;10.82;;;6.40;99.90;;;;;;5045760;28;20116;-84
2021/11/06 07:19:09;;;;;;;17.92;10.70;;;6.40;99.90;;;;;;5045833;28;20120;-83
2021/11/06 07:21:35;;;;;;;15.43;8.75;;;6.30;99.90;;;;;;5045468;28;20045;-83
2021/11/06 07:24:01;;;;;;;14.88;9.27;;;6.40;99.90;;;;;;5045877;28;20065;-84
2021/11/06 07:26:26;;;;;;;13.45;8.77;;;6.40;99.90;;;;;;5049369;28;20041;-85
2021/11/06 07:28:52;;;;;;;12.55;8.82;;;6.40;99.90;;;;;;5049121;28;20121;-83
2021/11/06 07:31:17;;;;;;;16.77;9.65;;;6.40;99.90;;;;;;5049206;28;20029;-83
2021/11/06 07:33:46;;;;;;;14.80;9.02;;;6.40;99.90;;;;;;5049883;28;20053;-84
2021/11/06 07:36:12;;;;;;;17.02;8.98;;;6.40;99.90;;;;;;5048638;28;20044;-84
2021/11/06 07:38:38;;;;;;;14.85;9.10;;;6.40;99.90;;;;;;5045700;28;20068;-85
2021/11/06 07:41:03;;;;;;;18.65;9.55;;;6.50;99.90;;;;;;5048829;28;20040;-84
2021/11/06 07:43:29;;;;;;;15.20;8.90;;;6.50;99.90;;;;;;5048955;28;20096;-84
2021/11/06 07:45:55;;;;;;;11.02;6.82;;;6.50;99.90;;;;;;5065139;28;20047;-83
2021/11/06 07:48:21;;;;;;;15.25;8.63;;;6.50;99.90;;;;;;5048502;28;20049;-83
2021/11/06 07:50:46;;;;;;;12.65;8.32;;;6.60;99.90;;;;;;5048677;28;20715;-84
2021/11/06 07:53:12;;;;;;;14.13;8.50;;;6.50;99.90;;;;;;5048563;28;20079;-84
2021/11/06 07:55:38;;;;;;;17.48;10.05;;;6.50;99.90;;;;;;5065886;28;20079;-83
2021/11/06 07:58:04;;;;;;;11.23;7.38;;;6.50;99.90;;;;;;5049163;28;20493;-83
2021/11/06 08:00:30;;;;;;;14.25;9.25;;;6.50;99.90;;;;;;5048997;28;20064;-84
2021/11/06 08:02:56;;;;;;;16.27;8.77;;;6.50;99.90;;;;;;5048853;28;20037;-83
2021/11/06 08:05:21;;;;;;;16.05;10.57;;;6.50;99.90;;;;;;5045509;28;20052;-83
2021/11/06 08:07:48;;;;;;;16.40;10.77;;;6.50;99.90;;;;;;5028637;28;20057;-84
2021/11/06 08:10:14;;;;;;;15.80;11.43;;;6.50;99.90;;;;;;5000139;28;20061;-83
2021/11/06 08:12:42;;;;;;;13.00;8.93;;;6.50;99.90;;;;;;5044918;28;20037;-84
2021/11/06 08:15:10;;;;;;;16.08;9.48;;;6.50;99.90;;;;;;5036890;28;20124;-83
2021/11/06 08:17:36;;;;;;;11.98;8.38;;;6.50;99.90;;;;;;5064723;28;20064;-84
2021/11/06 08:20:05;;;;;;;11.95;8.65;;;6.60;99.90;;;;;;5064588;28;20060;-86
2021/11/06 08:22:31;;;;;;;11.25;8.25;;;6.60;99.90;;;;;;5065604;28;20077;-84
2021/11/06 08:24:56;;;;;;;14.43;8.07;;;6.60;99.90;;;;;;5065677;28;20139;-84
2021/11/06 08:27:23;;;;;;;12.98;8.65;;;6.60;99.90;;;;;;5048202;28;20507;-83
2021/11/06 08:29:48;;;;;;;13.88;10.30;;;6.60;99.90;;;;;;5048006;28;20035;-84
2021/11/06 08:32:14;;;;;;;13.20;9.23;;;6.60;99.90;;;;;;5047586;28;20039;-84
2021/11/06 08:34:39;;;;;;;13.60;9.02;;;6.70;99.90;;;;;;5047705;28;20043;-84
2021/11/06 08:37:06;;;;;;;12.48;9.20;;;6.70;99.90;;;;;;5047412;28;20044;-83
2021/11/06 08:39:31;;;;;;;15.18;9.90;;;6.70;99.90;;;;;;5047530;28;20049;-83
2021/11/06 08:41:57;;;;;;;12.63;9.32;;;6.80;99.90;;;;;;5047679;28;20096;-83
2021/11/06 08:44:23;;;;;;;11.80;8.32;;;6.80;99.90;;;;;;5047612;28;20547;-84
2021/11/06 08:46:55;;;;;;;15.47;8.10;;;6.90;99.90;;;;;;5089465;23;20045;-84
2021/11/06 08:49:21;;;;;;;11.32;7.45;;;6.90;99.90;;;;;;5047939;28;20283;-83
2021/11/06 08:51:48;;;;;;;16.80;8.75;;;7.00;99.90;;;;;;5061949;28;20060;-83
2021/11/06 08:54:15;;;;;;;10.88;7.43;;;7.00;99.90;;;;;;5019360;28;20471;-83
2021/11/06 08:56:45;;;;;;;11.43;7.57;;;7.10;99.90;;;;;;5027859;28;20401;-84
2021/11/06 08:59:12;;;;;;;12.00;7.75;;;7.10;99.90;;;;;;5027880;28;20048;-84
2021/11/06 09:01:38;;;;;;;12.23;7.97;;;7.10;99.90;;;;;;5027838;28;20045;-83
2021/11/06 09:04:04;;;;;;;10.73;7.95;;;7.10;99.90;;;;;;5028009;28;20038;-84
2021/11/06 09:06:33;;;;;;;11.70;7.55;;;7.20;99.90;;;;;;5047582;28;20048;-83
2021/11/06 09:09:01;;;;;;;11.68;8.10;;;7.20;99.90;;;;;;5047719;28;20072;-83
2021/11/06 09:11:26;;;;;;;11.52;7.53;;;7.30;99.90;;;;;;5047525;28;20079;-82
2021/11/06 09:13:55;;;;;;;10.98;6.43;;;7.40;99.90;;;;;;5044353;28;20034;-83
2021/11/06 09:16:21;;;;;;;11.80;7.60;;;7.50;99.90;;;;;;5043996;28;20462;-83
2021/11/06 09:18:51;;;;;;;10.80;6.82;;;7.40;99.90;;;;;;5044131;28;20044;-83
2021/11/06 09:21:20;;;;;;;12.30;6.30;;;7.50;99.90;;;;;;5043176;28;20045;-83
2021/11/06 09:23:50;;;;;;;12.88;7.47;;;7.50;99.90;;;;;;5042831;28;20041;-84
2021/11/06 09:26:18;;;;;;;10.45;7.05;;;7.50;99.90;;;;;;5027084;28;20128;-83
2021/11/06 09:28:44;;;;;;;10.82;6.20;;;7.60;99.90;;;;;;5043843;28;20080;-83
2021/11/06 09:31:10;;;;;;;12.35;6.60;;;7.60;99.90;;;;;;5043372;28;20061;-83
2021/11/06 09:33:37;;;;;;;12.32;7.05;;;7.60;99.90;;;;;;5043675;28;20128;-84
2021/11/06 09:36:06;;;;;;;8.77;6.35;;;7.50;99.90;;;;;;5043182;28;20057;-83
2021/11/06 09:38:32;;;;;;;9.15;5.70;;;7.50;99.90;;;;;;5043497;28;20047;-84
2021/11/06 09:41:03;;;;;;;10.25;6.15;;;7.60;99.90;;;;;;5060367;28;20065;-83
2021/11/06 09:43:29;;;;;;;9.85;6.22;;;7.60;99.90;;;;;;5043618;28;20041;-83
2021/11/06 09:45:57;;;;;;;11.98;7.00;;;7.70;99.90;;;;;;5043344;28;20034;-83
2021/11/06 09:48:23;;;;;;;12.65;7.90;;;7.70;99.90;;;;;;5059684;28;20049;-83
2021/11/06 09:50:49;;;;;;;9.95;5.57;;;7.70;99.90;;;;;;5059916;28;20061;-84
2021/11/06 09:53:16;;;;;;;9.73;4.82;;;7.80;99.90;;;;;;5043403;28;20141;-84
2021/11/06 09:55:43;;;;;;;9.88;5.85;;;7.90;99.90;;;;;;5026732;28;20404;-84
2021/11/06 09:58:10;;;;;;;10.10;6.75;;;8.00;99.90;;;;;;5043589;28;20041;-87
2021/11/06 10:00:37;;;;;;;11.63;7.20;;;8.10;99.90;;;;;;5060476;28;20109;-87
2021/11/06 10:03:03;;;;;;;11.38;7.50;;;8.20;99.90;;;;;;5043385;28;20109;-85
2021/11/06 10:05:47;;;;;;;8.50;6.20;;;8.30;99.90;;;;;;5029825;28;20048;-84
2021/11/06 10:08:21;;;;;;;10.25;6.85;;;8.50;99.90;;;;;;5046742;28;20064;-84
2021/11/06 10:10:48;;;;;;;11.13;6.57;;;8.60;99.90;;;;;;5029872;28;20041;-84
2021/11/06 10:13:13;;;;;;;9.95;5.80;;;8.60;99.90;;;;;;5046256;28;20056;-83
2021/11/06 10:15:46;;;;;;;8.32;5.45;;;8.60;99.90;;;;;;5062986;28;20041;-83
2021/11/06 10:18:17;;;;;;;7.28;5.20;;;8.70;99.90;;;;;;5046465;28;20049;-83
2021/11/06 10:20:45;;;;;;;10.95;5.80;;;8.80;99.90;;;;;;5063124;28;20033;-84
2021/11/06 10:23:11;;;;;;;8.98;5.68;;;8.80;99.90;;;;;;5046935;28;20056;-84
2021/11/06 10:25:37;;;;;;;11.85;5.85;;;8.90;99.90;;;;;;5046596;28;20405;-84
2021/11/06 10:28:08;;;;;;;7.10;4.28;;;8.90;99.90;;;;;;5046585;28;20106;-84
2021/11/06 10:30:37;;;;;;;7.95;4.10;;;9.00;99.90;;;;;;5047808;28;20037;-84
2021/11/06 10:33:10;;;;;;;7.10;4.70;;;9.00;99.90;;;;;;5046309;28;20041;-84
2021/11/06 10:35:39;;;;;;;11.48;5.65;;;9.10;99.90;;;;;;5049096;28;20539;-84
2021/11/06 10:38:14;;;;;;;9.57;4.90;;;9.10;99.90;;;;;;5066814;28;20048;-84
2021/11/06 10:40:49;;;;;;;10.82;5.43;;;9.20;99.90;;;;;;5049968;28;20037;-83
2021/11/06 10:43:18;;;;;;;8.13;4.47;;;9.20;99.90;;;;;;5066541;28;20033;-83
2021/11/06 10:45:47;;;;;;;8.13;4.05;;;9.20;99.90;;;;;;5047929;28;20070;-82
2021/11/06 10:48:17;;;;;;;6.70;4.28;;;9.30;99.90;;;;;;5049375;28;20052;-82
2021/11/06 10:51:02;;;;;;;7.72;5.15;;;9.30;99.90;;;;;;5066157;28;20485;-83
2021/11/06 10:53:30;;;;;;;7.63;4.57;;;9.30;99.90;;;;;;5049488;28;20057;-83
2021/11/06 10:55:58;;;;;;;6.85;4.70;;;9.20;99.90;;;;;;5066307;28;20041;-82
2021/11/06 10:58:26;;;;;;;6.93;3.92;;;9.30;99.90;;;;;;5066207;28;20108;-83
2021/11/06 11:00:57;;;;;;;7.40;3.53;;;9.30;99.90;;;;;;5065884;28;20040;-83
2021/11/06 11:03:30;;;;;;;6.07;3.92;;;9.40;99.90;;;;;;5042630;28;20047;-84
2021/11/06 11:05:58;;;;;;;8.20;3.92;;;9.50;99.90;;;;;;5044815;28;20136;-82
2021/11/06 11:08:24;;;;;;;6.30;3.42;;;9.50;99.90;;;;;;5032999;28;20064;-83
2021/11/06 11:10:50;;;;;;;9.57;4.07;;;9.60;99.90;;;;;;5065895;28;20045;-83
2021/11/06 11:13:25;;;;;;;6.97;4.05;;;9.60;99.90;;;;;;5065998;28;20044;-83
2021/11/06 11:15:53;;;;;;;5.95;2.95;;;9.50;99.90;;;;;;5045475;28;20092;-83
2021/11/06 11:18:32;;;;;;;5.50;3.38;;;9.60;99.90;;;;;;5062548;28;20068;-83
2021/11/06 11:21:13;;;;;;;7.50;4.43;;;9.70;99.90;;;;;;5029371;28;20049;-83
2021/11/06 11:23:46;;;;;;;7.03;3.17;;;9.70;99.90;;;;;;5012982;28;20124;-83
2021/11/06 11:26:13;;;;;;;9.50;4.60;;;9.70;99.90;;;;;;5032022;28;20044;-83
2021/11/06 11:28:39;;;;;;;7.70;3.17;;;9.60;99.90;;;;;;5062055;28;20479;-83
2021/11/06 11:31:06;;;;;;;7.57;4.28;;;9.70;99.90;;;;;;5061941;28;20132;-82
2021/11/06 11:33:37;;;;;;;5.80;3.65;;;9.60;99.90;;;;;;5039840;28;20603;-83
2021/11/06 11:36:06;;;;;;;6.25;3.75;;;9.70;99.90;;;;;;5050458;28;20100;-84
2021/11/06 11:38:33;;;;;;;6.45;3.75;;;9.70;99.90;;;;;;5046704;28;20124;-83
2021/11/06 11:41:41;;;;;;;9.52;3.72;;;9.70;99.90;;;;;;5040668;28;20124;-85
2021/11/06 11:44:51;;;;;;;5.82;2.85;;;9.80;99.90;;;;;;5054089;28;20041;-84
2021/11/06 11:47:41;;;;;;;7.80;3.78;;;9.90;99.90;;;;;;4989970;28;20129;-85
2021/11/06 11:50:11;;;;;;;;;;;9.90;99.90;;;;;;5053893;28;20045;-84
2021/11/06 11:52:38;;;;;;;6.80;3.58;;;10.00;99.90;;;;;;5050073;28;19921;-87
2021/11/06 11:55:17;;;;;;;5.88;3.50;;;9.90;99.90;;;;;;5029110;28;20040;-85
2021/11/06 11:58:03;;;;;;;6.30;2.73;;;9.90;99.90;;;;;;5052334;28;20056;-84
2021/11/06 12:00:29;;;;;;;6.05;2.95;;;9.90;99.90;;;;;;5055278;28;20680;-85
2021/11/06 12:03:00;;;;;;;5.65;3.13;;;10.00;99.90;;;;;;5045095;28;20052;-87
2021/11/06 12:05:26;;;;;;;4.68;2.63;;;10.10;99.90;;;;;;5051135;28;20041;-86
2021/11/06 12:08:14;;;;;;;4.30;3.08;;;10.10;99.90;;;;;;5039143;28;20041;-84
2021/11/06 12:11:10;;;;;;;3.72;2.33;;;10.20;99.90;;;;;;5053713;28;20059;-87
2021/11/06 12:13:39;;;;;;;5.97;2.25;;;10.20;99.90;;;;;;5044382;28;20052;-86
2021/11/06 12:16:13;;;;;;;4.60;3.20;;;10.20;99.90;;;;;;5038777;28;20052;-85
2021/11/06 12:18:46;;;;;;;5.13;2.63;;;10.10;99.90;;;;;;5053260;28;20048;-89
2021/11/06 12:21:19;;;;;;;5.72;2.47;;;10.20;99.90;;;;;;5051328;28;20056;-84
2021/11/06 12:23:48;;;;;;;4.22;2.92;;;10.20;99.90;;;;;;5040972;28;20053;-86
2021/11/06 12:26:21;;;;;;;4.68;3.33;;;10.20;99.90;;;;;;5058099;28;20049;-85
2021/11/06 12:28:49;;;;;;;5.85;3.00;;;10.20;99.90;;;;;;5037697;28;20231;-84
2021/11/06 12:31:26;;;;;;;4.78;2.90;;;10.30;99.90;;;;;;5044982;28;20060;-85
2021/11/06 12:33:52;;;;;;;7.55;2.90;;;10.30;99.90;;;;;;5044358;28;20052;-83
2021/11/06 12:36:21;;;;;;;5.05;2.42;;;10.40;99.90;;;;;;5044533;28;20037;-84
2021/11/06 12:38:48;;;;;;;5.70;2.67;;;10.50;99.90;;;;;;5044449;28;20047;-84
2021/11/06 12:41:24;;;;;;;4.75;2.50;;;10.60;99.90;;;;;;5044676;28;20048;-83
2021/11/06 12:43:51;;;;;;;9.57;3.13;;;10.50;99.90;;;;;;5041807;28;20068;-85
2021/11/06 12:46:27;;;;;;;7.35;3.17;;;10.60;99.90;;;;;;5049358;28;20121;-83
2021/11/06 12:48:58;;;;;;;4.85;1.90;;;10.50;99.90;;;;;;5041390;28;20037;-84
2021/11/06 12:51:33;;;;;;;4.50;2.45;;;10.70;99.90;;;;;;5034174;28;20476;-84